createdAt,value
2023-01-25T00:02:58.119Z,0.57
2023-01-25T00:06:08.666Z,0.60
2023-01-25T00:09:18.786Z,0.53
2023-01-25T00:12:27.176Z,0.47
2023-01-25T00:15:35.445Z,0.52
2023-01-25T00:18:45.610Z,0.55
2023-01-25T00:21:53.864Z,0.58
2023-01-25T00:25:02.246Z,0.63
2023-01-25T00:28:10.722Z,0.68
2023-01-25T00:31:29.837Z,0.66
2023-01-25T00:34:57.945Z,0.60
2023-01-25T00:38:29.211Z,0.55
2023-01-25T00:41:37.690Z,0.53
2023-01-25T00:44:46.825Z,0.51
2023-01-25T00:47:56.912Z,0.51
2023-01-25T00:51:07.033Z,0.58
2023-01-25T00:54:15.266Z,0.63
2023-01-25T00:57:23.745Z,0.62
2023-01-25T01:00:31.960Z,0.52
2023-01-25T01:03:40.470Z,0.48
2023-01-25T01:06:50.613Z,0.45
2023-01-25T01:10:00.515Z,0.42
2023-01-25T01:13:09.539Z,0.45
2023-01-25T01:16:17.750Z,0.49
2023-01-25T01:19:26.566Z,0.59
2023-01-25T01:22:36.429Z,0.57
2023-01-25T01:25:44.735Z,0.66
2023-01-25T01:28:53.135Z,0.67
2023-01-25T01:32:01.593Z,0.70
2023-01-25T01:35:11.076Z,0.67
2023-01-25T01:38:21.500Z,0.67
2023-01-25T01:41:29.931Z,0.67
2023-01-25T01:44:47.776Z,0.66
2023-01-25T01:47:56.739Z,0.63
2023-01-25T01:51:17.583Z,0.55
2023-01-25T01:54:37.607Z,0.52
2023-01-25T01:57:53.746Z,0.43
2023-01-25T02:01:02.549Z,0.26
2023-01-25T02:04:12.842Z,0.35
2023-01-25T02:07:28.879Z,0.40
2023-01-25T02:10:42.343Z,0.52
2023-01-25T02:13:54.289Z,0.53
2023-01-25T02:17:03.050Z,0.52
2023-01-25T02:20:24.810Z,0.53
2023-01-25T02:23:48.409Z,0.50
2023-01-25T02:26:58.502Z,0.48
2023-01-25T02:30:09.015Z,0.51
2023-01-25T02:33:17.827Z,0.46
2023-01-25T02:36:29.886Z,0.41
2023-01-25T02:39:39.429Z,0.41
2023-01-25T02:42:49.309Z,0.44
2023-01-25T02:46:10.922Z,0.49
2023-01-25T02:49:20.453Z,0.52
2023-01-25T02:52:30.101Z,0.49
2023-01-25T02:55:39.493Z,0.53
2023-01-25T02:58:52.419Z,0.47
2023-01-25T03:02:02.302Z,0.49
2023-01-25T03:05:12.260Z,0.51
2023-01-25T03:08:20.547Z,0.54
2023-01-25T03:11:32.116Z,0.51
2023-01-25T03:14:44.516Z,0.54
2023-01-25T03:17:53.087Z,0.55
2023-01-25T03:21:07.985Z,0.51
2023-01-25T03:24:16.323Z,0.46
2023-01-25T03:27:30.614Z,0.48
2023-01-25T03:30:55.694Z,0.47
2023-01-25T03:34:03.962Z,0.42
2023-01-25T03:37:17.219Z,0.38
2023-01-25T03:40:25.701Z,0.38
2023-01-25T03:43:34.668Z,0.36
2023-01-25T03:46:45.019Z,0.37
2023-01-25T03:49:53.336Z,0.28
2023-01-25T03:53:07.103Z,0.22
2023-01-25T03:56:20.285Z,0.19
2023-01-25T03:59:45.326Z,0.24
2023-01-25T04:02:55.204Z,0.22
2023-01-25T04:06:04.377Z,0.22
2023-01-25T04:09:14.821Z,0.22
2023-01-25T04:12:30.911Z,0.30
2023-01-25T04:15:39.638Z,0.26
2023-01-25T04:18:57.979Z,0.23
2023-01-25T04:22:08.981Z,0.19
2023-01-25T04:25:20.855Z,0.29
2023-01-25T04:28:36.021Z,0.34
2023-01-25T04:31:44.434Z,0.35
2023-01-25T04:34:54.810Z,0.28
2023-01-25T04:38:06.329Z,0.37
2023-01-25T04:41:18.964Z,0.34
2023-01-25T04:44:27.217Z,0.35
2023-01-25T04:47:35.935Z,0.36
2023-01-25T04:50:47.712Z,0.38
2023-01-25T04:53:56.488Z,0.38
2023-01-25T04:57:04.988Z,0.44
2023-01-25T05:00:14.533Z,0.34
2023-01-25T05:03:23.072Z,0.19
2023-01-25T05:06:32.967Z,0.18
2023-01-25T05:09:41.320Z,0.28
2023-01-25T05:12:50.466Z,0.16
2023-01-25T05:15:58.768Z,0.21
2023-01-25T05:19:06.993Z,0.23
2023-01-25T05:22:24.176Z,0.31
2023-01-25T05:25:51.868Z,0.31
2023-01-25T05:29:11.389Z,0.16
2023-01-25T05:32:26.848Z,0.14
2023-01-25T05:35:35.098Z,0.15
2023-01-25T05:38:45.094Z,0.19
2023-01-25T05:41:54.681Z,0.19
2023-01-25T05:45:03.073Z,0.17
2023-01-25T05:48:12.104Z,0.15
2023-01-25T05:51:20.780Z,0.19
2023-01-25T05:54:30.712Z,0.16
2023-01-25T05:57:45.283Z,0.20
2023-01-25T06:00:53.550Z,0.14
2023-01-25T06:04:16.882Z,0.14
2023-01-25T06:07:25.256Z,0.05
2023-01-25T06:10:34.940Z,0.12
2023-01-25T06:13:44.005Z,0.19
2023-01-25T06:16:52.432Z,0.19
2023-01-25T06:20:13.895Z,0.30
2023-01-25T06:23:46.769Z,0.23
2023-01-25T06:26:56.430Z,0.22
2023-01-25T06:30:05.560Z,0.21
2023-01-25T06:33:13.802Z,0.17
2023-01-25T06:36:23.662Z,0.10
2023-01-25T06:39:31.859Z,0.17
2023-01-25T06:42:41.652Z,0.19
2023-01-25T06:45:50.067Z,0.21
2023-01-25T06:48:58.307Z,0.26
2023-01-25T06:52:06.570Z,0.19
2023-01-25T06:55:14.842Z,0.15
2023-01-25T06:58:24.527Z,0.17
2023-01-25T07:01:33.566Z,0.18
2023-01-25T07:04:41.814Z,0.18
2023-01-25T07:07:50.031Z,0.32
2023-01-25T07:11:01.446Z,0.38
2023-01-25T07:14:11.041Z,0.52
2023-01-25T07:17:19.334Z,0.52
2023-01-25T07:20:28.696Z,0.44
2023-01-25T07:23:38.009Z,0.48
2023-01-25T07:26:47.500Z,0.49
2023-01-25T07:29:57.011Z,0.44
2023-01-25T07:33:05.333Z,0.45
2023-01-25T07:36:13.828Z,0.57
2023-01-25T07:39:22.136Z,0.59
2023-01-25T07:42:30.342Z,0.66
2023-01-25T07:45:55.408Z,0.72
2023-01-25T07:49:03.669Z,0.69
2023-01-25T07:52:11.858Z,0.74
2023-01-25T07:55:20.202Z,0.66
2023-01-25T07:58:28.372Z,0.70
2023-01-25T08:01:39.004Z,0.82
2023-01-25T08:04:47.365Z,0.92
2023-01-25T08:07:55.659Z,0.92
2023-01-25T08:11:13.104Z,0.84
2023-01-25T08:14:21.491Z,0.78
2023-01-25T08:17:33.225Z,0.72
2023-01-25T08:20:41.630Z,0.85
2023-01-25T08:23:50.019Z,0.81
2023-01-25T08:26:58.266Z,0.86
2023-01-25T08:30:08.340Z,0.89
2023-01-25T08:33:18.232Z,0.95
2023-01-25T08:36:30.590Z,0.88
2023-01-25T08:39:39.115Z,0.84
2023-01-25T08:42:47.881Z,0.91
2023-01-25T08:45:58.527Z,0.88
2023-01-25T08:49:10.766Z,0.85
2023-01-25T08:52:21.804Z,0.60
2023-01-25T08:55:30.371Z,0.33
2023-01-25T08:58:40.726Z,0.36
2023-01-25T09:01:49.156Z,0.30
2023-01-25T09:04:58.922Z,0.20
2023-01-25T09:08:11.223Z,0.35
2023-01-25T09:11:22.175Z,0.56
2023-01-25T09:14:31.721Z,0.38
2023-01-25T09:17:40.113Z,0.40
2023-01-25T09:20:50.112Z,0.44
2023-01-25T09:24:07.521Z,0.59
2023-01-25T09:27:16.366Z,0.51
2023-01-25T09:30:37.348Z,0.50
2023-01-25T09:33:58.590Z,0.37
2023-01-25T09:37:08.501Z,0.36
2023-01-25T09:40:23.828Z,0.40
2023-01-25T09:43:56.787Z,0.57
2023-01-25T09:47:15.550Z,0.72
2023-01-25T09:50:38.315Z,0.89
2023-01-25T09:53:52.519Z,0.88
2023-01-25T09:57:01.288Z,0.91
2023-01-25T10:00:22.668Z,0.94
2023-01-25T10:03:44.309Z,1.00
2023-01-25T10:07:01.254Z,1.13
2023-01-25T10:10:18.531Z,1.27
2023-01-25T10:13:32.650Z,1.30
2023-01-25T10:16:59.375Z,0.85
2023-01-25T10:20:24.121Z,0.67
2023-01-25T10:23:54.213Z,0.51
2023-01-25T10:27:27.317Z,0.44
2023-01-25T10:30:44.310Z,0.44
2023-01-25T10:33:54.368Z,0.43
2023-01-25T10:37:12.462Z,0.29
2023-01-25T10:40:28.581Z,0.27
2023-01-25T10:43:38.379Z,0.18
2023-01-25T10:46:57.810Z,0.44
2023-01-25T10:50:07.166Z,0.80
2023-01-25T10:53:42.178Z,0.89
2023-01-25T10:56:51.389Z,0.97
2023-01-25T11:00:10.550Z,0.96
2023-01-25T11:03:22.753Z,0.67
2023-01-25T11:06:35.998Z,0.76
2023-01-25T11:09:44.134Z,0.87
2023-01-25T11:13:21.103Z,0.63
2023-01-25T11:16:41.815Z,0.67
2023-01-25T11:19:50.005Z,0.79
2023-01-25T11:22:58.826Z,0.74
2023-01-25T11:26:16.797Z,1.03
2023-01-25T11:29:26.399Z,1.11
2023-01-25T11:32:36.577Z,1.30
2023-01-25T11:36:06.630Z,1.36
2023-01-25T11:39:40.557Z,1.49
2023-01-25T11:43:08.792Z,1.43
2023-01-25T11:46:40.509Z,1.56
2023-01-25T11:50:04.958Z,1.56
2023-01-25T11:53:36.148Z,1.46
2023-01-25T11:56:59.025Z,1.39
2023-01-25T12:00:42.672Z,1.44
2023-01-25T12:04:39.593Z,1.38
2023-01-25T12:08:05.450Z,1.50
2023-01-25T12:11:30.271Z,1.47
2023-01-25T12:15:11.045Z,1.49
2023-01-25T12:18:48.284Z,1.54
2023-01-25T12:22:20.075Z,1.63
2023-01-25T12:25:39.350Z,1.58
2023-01-25T12:28:52.997Z,1.59
2023-01-25T12:32:12.326Z,1.64
2023-01-25T12:35:34.202Z,1.64
2023-01-25T12:38:53.957Z,1.36
2023-01-25T12:42:16.303Z,1.14
2023-01-25T12:45:29.185Z,1.08
2023-01-25T12:48:45.422Z,1.09
2023-01-25T12:52:00.406Z,0.82
2023-01-25T12:55:15.895Z,0.67
2023-01-25T12:58:38.574Z,0.69
2023-01-25T13:01:54.766Z,0.79
2023-01-25T13:05:17.906Z,0.96
2023-01-25T13:08:44.804Z,1.01
2023-01-25T13:11:53.257Z,0.87
2023-01-25T13:15:03.020Z,0.93
2023-01-25T13:18:38.230Z,0.97
2023-01-25T13:21:48.998Z,1.01
2023-01-25T13:25:21.328Z,0.88
2023-01-25T13:28:45.780Z,0.89
2023-01-25T13:31:58.830Z,0.87
2023-01-25T13:35:38.304Z,0.61
2023-01-25T13:38:46.571Z,0.68
2023-01-25T13:42:00.902Z,0.64
2023-01-25T13:45:20.855Z,0.77
2023-01-25T13:48:33.128Z,0.90
2023-01-25T13:51:44.018Z,1.00
2023-01-25T13:54:57.601Z,0.85
2023-01-25T13:58:19.493Z,0.91
2023-01-25T14:01:32.349Z,0.79
2023-01-25T14:04:41.958Z,0.71
2023-01-25T14:07:57.206Z,0.53
2023-01-25T14:11:06.931Z,0.57
2023-01-25T14:14:25.298Z,0.53
2023-01-25T14:17:33.692Z,0.44
2023-01-25T14:20:44.696Z,0.53
2023-01-25T14:23:53.298Z,0.68
2023-01-25T14:27:01.558Z,0.73
2023-01-25T14:30:21.870Z,0.79
2023-01-25T14:33:35.669Z,0.84
2023-01-25T14:36:45.439Z,0.91
2023-01-25T14:39:54.193Z,0.91
2023-01-25T14:43:03.256Z,0.79
2023-01-25T14:46:32.689Z,0.89
2023-01-25T14:49:41.071Z,0.92
2023-01-25T14:52:51.104Z,0.94
2023-01-25T14:56:00.174Z,0.81
2023-01-25T14:59:23.806Z,0.84
2023-01-25T15:02:40.471Z,0.85
2023-01-25T15:05:50.016Z,0.91
2023-01-25T15:08:59.607Z,0.84
2023-01-25T15:12:29.758Z,0.89
2023-01-25T15:15:50.549Z,0.89
2023-01-25T15:18:58.788Z,0.91
2023-01-25T15:22:10.230Z,0.80
2023-01-25T15:25:24.514Z,0.68
2023-01-25T15:28:34.452Z,0.62
2023-01-25T15:31:43.495Z,0.55
2023-01-25T15:34:52.065Z,0.54
2023-01-25T15:38:00.335Z,0.64
2023-01-25T15:41:11.111Z,0.65
2023-01-25T15:44:20.555Z,0.66
2023-01-25T15:47:29.044Z,0.62
2023-01-25T15:50:37.552Z,0.60
2023-01-25T15:53:46.839Z,0.48
2023-01-25T15:57:00.302Z,0.48
2023-01-25T16:00:18.425Z,0.54
2023-01-25T16:03:26.634Z,0.62
2023-01-25T16:06:41.999Z,0.52
2023-01-25T16:09:50.243Z,0.52
2023-01-25T16:12:59.945Z,0.48
2023-01-25T16:16:19.831Z,0.49
2023-01-25T16:19:29.744Z,0.38
2023-01-25T16:22:38.106Z,0.28
2023-01-25T16:25:49.861Z,0.34
2023-01-25T16:28:59.318Z,0.11
2023-01-25T16:32:07.935Z,0.05
2023-01-25T16:35:16.239Z,-0.14
2023-01-25T16:38:25.494Z,-0.14
2023-01-25T16:41:34.479Z,-0.15
2023-01-25T16:44:45.161Z,-0.09
2023-01-25T16:47:53.803Z,-0.08
2023-01-25T16:51:02.418Z,0.02
2023-01-25T16:54:13.029Z,0.12
2023-01-25T16:57:21.242Z,0.21
2023-01-25T17:00:30.781Z,0.27
2023-01-25T17:03:39.215Z,0.29
2023-01-25T17:06:50.647Z,0.31
2023-01-25T17:09:58.994Z,0.28
2023-01-25T17:13:08.690Z,0.32
2023-01-25T17:16:18.903Z,0.38
2023-01-25T17:19:27.122Z,0.34
2023-01-25T17:22:37.483Z,0.28
2023-01-25T17:25:45.683Z,0.20
2023-01-25T17:28:55.826Z,0.22
2023-01-25T17:32:05.586Z,0.29
2023-01-25T17:35:13.739Z,0.33
2023-01-25T17:38:22.126Z,0.24
2023-01-25T17:41:30.523Z,0.20
2023-01-25T17:44:38.783Z,0.13
2023-01-25T17:47:48.262Z,0.05
2023-01-25T17:51:05.936Z,0.13
2023-01-25T17:54:15.052Z,0.08
2023-01-25T17:57:24.008Z,-0.01
2023-01-25T18:00:32.642Z,0.00
2023-01-25T18:03:42.750Z,0.05
2023-01-25T18:06:50.971Z,-0.03
2023-01-25T18:09:59.177Z,0.08
2023-01-25T18:13:07.927Z,0.14
2023-01-25T18:16:18.762Z,0.21
2023-01-25T18:19:31.140Z,0.18
2023-01-25T18:22:39.431Z,0.12
2023-01-25T18:25:47.633Z,0.12
2023-01-25T18:29:00.843Z,0.15
2023-01-25T18:32:09.212Z,0.19
2023-01-25T18:35:18.903Z,0.22
2023-01-25T18:38:28.127Z,0.21
2023-01-25T18:41:36.791Z,0.25
2023-01-25T18:44:48.204Z,0.30
2023-01-25T18:47:56.477Z,0.29
2023-01-25T18:51:09.924Z,0.28
2023-01-25T18:54:18.028Z,0.15
2023-01-25T18:57:26.237Z,0.17
2023-01-25T19:00:35.905Z,0.15
2023-01-25T19:03:45.462Z,0.05
2023-01-25T19:06:57.469Z,0.05
2023-01-25T19:10:06.787Z,0.00
2023-01-25T19:13:15.314Z,0.08
2023-01-25T19:16:25.185Z,0.00
2023-01-25T19:19:34.118Z,0.08
2023-01-25T19:22:44.742Z,0.08
2023-01-25T19:25:56.945Z,0.11
2023-01-25T19:29:05.890Z,0.11
2023-01-25T19:32:14.294Z,0.08
2023-01-25T19:35:22.746Z,0.12
2023-01-25T19:38:33.477Z,0.05
2023-01-25T19:41:41.856Z,-0.04
2023-01-25T19:44:50.069Z,0.04
2023-01-25T19:47:58.383Z,0.03
2023-01-25T19:51:12.285Z,-0.04
2023-01-25T19:54:24.268Z,-0.03
2023-01-25T19:57:33.464Z,-0.05
2023-01-25T20:00:41.694Z,0.04
2023-01-25T20:03:51.302Z,-0.06
2023-01-25T20:06:59.513Z,-0.06
2023-01-25T20:10:11.703Z,-0.12
2023-01-25T20:13:19.996Z,-0.12
2023-01-25T20:16:30.446Z,-0.07
2023-01-25T20:19:38.774Z,-0.07
2023-01-25T20:22:49.228Z,-0.15
2023-01-25T20:26:00.245Z,-0.24
2023-01-25T20:29:10.086Z,-0.21
2023-01-25T20:32:31.768Z,-0.16
2023-01-25T20:35:41.096Z,-0.23
2023-01-25T20:38:49.469Z,-0.19
2023-01-25T20:41:59.079Z,-0.09
2023-01-25T20:45:11.415Z,-0.19
2023-01-25T20:48:21.769Z,-0.13
2023-01-25T20:51:30.023Z,-0.10
2023-01-25T20:54:38.266Z,-0.10
2023-01-25T20:57:47.839Z,-0.07
2023-01-25T21:00:56.773Z,-0.13
2023-01-25T21:04:09.560Z,-0.15
2023-01-25T21:07:17.977Z,-0.15
2023-01-25T21:10:26.755Z,-0.18
2023-01-25T21:13:36.720Z,-0.17
2023-01-25T21:16:44.967Z,-0.36
2023-01-25T21:19:53.134Z,-0.51
2023-01-25T21:23:01.393Z,-0.61
2023-01-25T21:26:15.040Z,-0.59
2023-01-25T21:29:25.263Z,-0.51
2023-01-25T21:32:33.527Z,-0.49
2023-01-25T21:35:41.718Z,-0.57
2023-01-25T21:38:52.588Z,-0.52
2023-01-25T21:42:00.775Z,-0.61
2023-01-25T21:45:30.040Z,-0.60
2023-01-25T21:48:55.720Z,-0.42
2023-01-25T21:52:03.899Z,-0.31
2023-01-25T21:55:12.066Z,-0.32
2023-01-25T21:58:20.216Z,-0.54
2023-01-25T22:01:29.849Z,-0.57
2023-01-25T22:04:39.209Z,-0.60
2023-01-25T22:07:47.453Z,-0.48
2023-01-25T22:11:02.882Z,-0.45
2023-01-25T22:14:11.104Z,-0.39
2023-01-25T22:17:22.531Z,-0.42
2023-01-25T22:20:30.726Z,-0.41
2023-01-25T22:23:38.914Z,-0.33
2023-01-25T22:27:04.367Z,-0.27
2023-01-25T22:30:14.011Z,-0.30
2023-01-25T22:33:23.992Z,-0.28
2023-01-25T22:36:33.201Z,-0.36
2023-01-25T22:39:41.420Z,-0.36
2023-01-25T22:42:49.625Z,-0.43
2023-01-25T22:45:57.812Z,-0.39
2023-01-25T22:49:10.772Z,-0.35
2023-01-25T22:52:18.983Z,-0.34
2023-01-25T22:55:27.592Z,-0.35
2023-01-25T22:58:38.365Z,-0.40
2023-01-25T23:01:47.381Z,-0.38
2023-01-25T23:04:57.716Z,-0.30
2023-01-25T23:08:06.507Z,-0.30
2023-01-25T23:11:18.826Z,-0.26
2023-01-25T23:14:44.519Z,-0.30
2023-01-25T23:18:10.254Z,-0.38
2023-01-25T23:21:23.667Z,-0.34
2023-01-25T23:24:32.260Z,-0.24
2023-01-25T23:27:41.105Z,-0.25
2023-01-25T23:30:49.599Z,-0.30
2023-01-25T23:34:01.115Z,-0.32
2023-01-25T23:37:10.836Z,-0.39
2023-01-25T23:40:19.541Z,-0.33
2023-01-25T23:43:28.055Z,-0.27
2023-01-25T23:46:36.530Z,-0.27
2023-01-25T23:49:45.000Z,-0.40
2023-01-25T23:52:54.881Z,-0.66
2023-01-25T23:56:06.449Z,-0.63
2023-01-25T23:59:15.089Z,-0.60
